Terminal Aerodrome Forecast
Issued by NWS

Home | Current Version | Previous Version | Text Only | Print | Product List | Glossary On
Versions: 1 2 3 4 5 6 7 8 9 10 11 12 13 14 15
000
FTUS45 KSLC 282337
TAFBCE
TAF
KBCE 282337Z 2900/2924 35009KT P6SM FEW090 BKN120
     FM290300 28006KT P6SM SCT120
     FM291900 29010G20KT P6SM SCT100 BKN120=

USA.gov is the U.S. government's official web portal to all federal, state and local government web resources and services.